Terminal Aerodrome Forecast
Issued by NWS Melbourne, FL

Home | Current Version | Previous Version | Text Only | Print | Product List | Glossary On
Versions: 1 2 3 4 5 6 7 8 9 10 11 12 13
000
FTUS42 KMLB 310500
TAFMLB
TAF
KMLB 310539Z 3106/0106 16003KT P6SM VCSH SCT025
      TEMPO 3106/3108 -SHRA BKN020
     FM311400 11006KT P6SM SCT020 SCT250
     FM311900 10011KT P6SM SCT030
     FM010300 12003KT P6SM SCT025=

USA.gov is the U.S. government's official web portal to all federal, state and local government web resources and services.